Data for 06/25/2017

Time Sea-Level Adjusted Pressure Absolute Pressure Temperature Relative Humidity Dew Point   
(mb) (inHg) (mb) (inHg) (C) (F) (%) (C) (F)
00:05 1027 30.33 857 25.31 13.8 56.9 39 0.1 32.1
00:10 1027 30.33 857 25.31 13.8 56.8 39 0.1 32.1
00:15 1027 30.33 857 25.31 13.7 56.6 39 0.1 32.1
00:20 1027 30.33 857 25.31 13.6 56.5 39 0.2 32.3
00:25 1027 30.33 857 25.31 13.6 56.4 40 0.2 32.3
00:30 1027 30.33 857 25.31 13.5 56.3 40 0.2 32.4
00:35 1028 30.36 857 25.31 13.4 56.2 40 0.2 32.4
00:40 1028 30.36 857 25.31 13.4 56.1 40 0.1 32.2
00:45 1028 30.36 857 25.31 13.4 56.2 40 0.2 32.3
00:50 1028 30.36 857 25.31 13.4 56.1 40 0.1 32.1
00:55 1028 30.36 857 25.31 13.3 55.9 41 0.4 32.6
01:00 1028 30.36 857 25.31 13.2 55.7 41 0.2 32.4
01:05 1028 30.36 857 25.31 13.1 55.5 41 0.3 32.5
01:10 1028 30.36 857 25.31 13 55.4 42 0.3 32.6
01:15 1028 30.36 857 25.31 12.9 55.2 42 0.4 32.7
01:20 1028 30.36 857 25.31 12.7 54.8 43 0.5 32.9
01:25 1028 30.36 857 25.31 12.6 54.6 43 0.5 32.9
01:30 1028 30.36 857 25.31 12.5 54.5 43 0.3 32.6
01:35 1028 30.36 857 25.31 12.5 54.6 43 0.3 32.6
01:40 1028 30.36 857 25.31 12.5 54.6 43 0.5 32.9
01:45 1028 30.36 857 25.31 12.5 54.5 43 0.3 32.6
01:50 1028 30.36 857 25.31 12.4 54.4 44 0.4 32.8
01:55 1028 30.36 857 25.31 12.4 54.3 44 0.4 32.7
02:00 1028 30.36 857 25.31 12.4 54.3 43 0.3 32.5
02:05 1028 30.36 857 25.31 12.4 54.3 43 0.2 32.4
02:10 1028 30.36 857 25.31 12.4 54.3 43 0.4 32.6
02:15 1028 30.36 857 25.31 12.3 54.2 43 0.3 32.5
02:20 1028 30.36 857 25.31 12.3 54.2 43 0.2 32.4
02:25 1028 30.36 857 25.31 12.3 54.1 43 0.3 32.5
02:30 1028 30.36 857 25.31 12.2 54 43 0.2 32.3
02:35 1028 30.36 857 25.31 12.3 54.1 44 0.3 32.6
02:40 1028 30.36 857 25.31 12.2 53.9 44 0.3 32.6
02:45 1028 30.36 857 25.31 12.1 53.7 44 0.4 32.7
02:50 1028 30.36 857 25.31 12 53.6 45 0.5 33
02:55 1028 30.36 857 25.31 11.8 53.3 45 0.4 32.8
03:00 1028 30.36 857 25.31 11.8 53.2 46 0.5 32.9
03:05 1027 30.33 857 25.31 11.6 52.9 46 0.5 33
03:10 1027 30.33 857 25.31 11.6 52.9 46 0.4 32.6
03:15 1028 30.36 857 25.31 11.7 53 46 0.4 32.7
03:20 1028 30.36 857 25.31 11.6 52.9 46 0.5 32.9
03:25 1028 30.36 857 25.31 11.5 52.6 47 0.6 33.1
03:30 1028 30.36 857 25.31 11.3 52.3 47 0.5 33
03:35 1028 30.36 857 25.31 11.2 52.2 48 0.5 33
03:40 1028 30.36 857 25.31 11.1 52 48 0.5 33
03:45 1028 30.36 857 25.31 11.1 52.1 48 0.5 32.9
03:50 1028 30.36 857 25.31 11 51.8 48 0.6 33.1
03:55 1028 30.36 857 25.31 11 51.7 48 0.5 33
04:00 1028 30.36 857 25.31 11 51.8 48 0.4 32.7
04:05 1028 30.36 857 25.31 11.2 52.1 47 0.4 32.7
04:10 1028 30.36 857 25.31 11.2 52.2 47 0.4 32.7
04:15 1028 30.36 857 25.31 11.2 52.2 47 0.3 32.6
04:20 1028 30.36 857 25.31 11.3 52.3 46 0.2 32.4
04:25 1028 30.36 857 25.31 11.3 52.3 47 0.3 32.6
04:30 1028 30.36 857 25.31 11.3 52.3 47 0.3 32.6
04:35 1028 30.36 857 25.31 11.2 52.1 47 0.4 32.6
04:40 1028 30.36 857 25.31 11.1 51.9 47 0.4 32.7
04:45 1028 30.36 857 25.31 11.1 51.9 47 0.4 32.7
04:50 1028 30.36 857 25.31 11 51.7 49 0.6 33
04:55 1028 30.36 857 25.31 10.8 51.5 49 0.5 32.9
05:00 1028 30.36 857 25.31 10.9 51.6 48 0.4 32.8
05:05 1028 30.36 857 25.31 11 51.7 48 0.5 32.9
05:10 1028 30.36 857 25.31 10.9 51.7 49 0.6 33.1
05:15 1028 30.36 857 25.31 10.9 51.5 49 0.7 33.3
05:20 1028 30.36 857 25.31 10.9 51.5 49 0.7 33.3
05:25 1028 30.36 857 25.31 10.9 51.6 49 0.8 33.4
05:30 1028 30.36 857 25.31 10.9 51.6 49 0.7 33.2
05:35 1028 30.36 857 25.31 11 51.8 49 0.8 33.5
05:40 1028 30.36 857 25.31 11.1 52 49 0.9 33.6
05:45 1028 30.36 857 25.31 11.2 52.2 49 0.8 33.5
05:50 1028 30.36 857 25.31 11.3 52.3 49 1 33.9
05:55 1028 30.36 857 25.31 11.4 52.5 49 1.1 33.9
06:00 1028 30.36 857 25.31 11.7 53 49 1.2 34.2
06:05 1028 30.36 857 25.31 11.7 53.1 49 1.3 34.4
06:10 1028 30.36 857 25.31 11.8 53.2 49 1.6 34.9
06:15 1028 30.36 857 25.31 11.9 53.4 49 1.6 35
06:20 1028 30.36 857 25.31 12.1 53.7 48 1.5 34.6
06:25 1028 30.36 857 25.31 12.5 54.5 47 1.5 34.7
06:30 1028 30.36 857 25.31 12.7 54.9 46 1.6 34.9
06:35 1028 30.36 857 25.31 13.2 55.7 45 1.7 35
06:40 1028 30.36 857 25.31 13.6 56.5 44 1.6 34.9
06:45 1028 30.36 857 25.31 13.9 57.1 43 1.5 34.7
06:50 1028 30.36 857 25.31 14.2 57.5 42 1.7 35
06:55 1028 30.36 857 25.31 14.6 58.2 42 1.8 35.2
07:00 1028 30.36 857 25.31 14.5 58 41 1.5 34.8
07:05 1028 30.36 857 25.31 14.5 58.1 42 1.8 35.3
07:10 1028 30.36 857 25.31 15.1 59.1 39 1.1 34
07:15 1028 30.36 857 25.31 14.9 58.8 40 1.5 34.7
07:20 1028 30.36 857 25.31 14.9 58.8 39 1.1 34
07:25 1028 30.36 857 25.31 15.2 59.3 39 1.5 34.6
07:30 1028 30.36 857 25.31 15.8 60.5 36 0.9 33.6
07:35 1028 30.36 857 25.31 15.7 60.2 37 1.3 34.3
07:40 1028 30.36 857 25.31 15.8 60.4 38 1.5 34.6
07:45 1028 30.36 857 25.31 15.9 60.6 37 1.4 34.5
07:50 1028 30.36 857 25.31 16.1 61 38 1.8 35.2
07:55 1028 30.36 857 25.31 16.2 61.1 37 1.8 35.2
08:00 1028 30.36 857 25.31 16.3 61.4 37 1.8 35.2
08:05 1028 30.36 857 25.31 16.7 62 36 1.6 34.8
08:10 1028 30.36 857 25.31 17.2 62.9 35 1.8 35.2
08:15 1028 30.36 857 25.31 17.2 63 38 2.8 37.1
08:20 1028 30.36 857 25.31 17 62.6 38 2.7 36.9
08:25 1028 30.36 857 25.31 16.4 61.4 39 2.6 36.7
08:30 1028 30.36 857 25.31 17.1 62.7 37 2.3 36.1
08:35 1028 30.36 857 25.31 16.6 61.9 37 2 35.5
08:40 1028 30.36 857 25.31 17.1 62.8 36 2.1 35.7
08:45 1028 30.36 857 25.31 17.7 63.8 34 1.8 35.2
08:50 1028 30.36 857 25.31 18.4 65 33 2.1 35.7
08:55 1028 30.36 857 25.31 18.3 64.9 33 1.7 35.1
09:00 1028 30.36 857 25.31 17.8 64 33 1.5 34.7
09:05 1028 30.36 857 25.31 18.4 65.1 35 2.8 37.1
09:10 1028 30.36 857 25.31 17.5 63.5 35 2.1 35.9
09:15 1028 30.36 857 25.31 18.4 65.1 33 2 35.7
09:20 1028 30.36 857 25.31 17.9 64.1 35 2.1 35.8
09:25 1028 30.36 857 25.31 18.7 65.7 33 2.4 36.3
09:30 1028 30.36 857 25.31 18.9 66 34 2.8 37.1
09:35 1028 30.36 857 25.31 19.3 66.7 32 2.4 36.4
09:40 1028 30.36 857 25.31 19.7 67.5 31 2.3 36.1
09:45 1028 30.36 857 25.31 19.5 67.2 33 3 37.4
09:50 1027 30.33 857 25.31 19.2 66.5 33 2.7 36.9
09:55 1027 30.33 857 25.31 19.9 67.9 32 2.9 37.2
10:00 1027 30.33 857 25.31 19.5 67.1 34 3.3 37.9
10:05 1027 30.33 857 25.31 19.7 67.5 32 2.6 36.8
10:10 1027 30.33 857 25.31 20.6 69 31 2.9 37.2
10:15 1027 30.33 857 25.31 20.6 69.2 32 3.6 38.5
10:20 1027 30.33 857 25.31 19.4 67 32 2.2 36
10:25 1027 30.33 857 25.31 20.9 69.6 30 3 37.5
10:30 1027 30.33 856 25.28 21.3 70.4 31 3.5 38.3
10:35 1027 30.33 856 25.28 21.6 70.8 30 3.7 38.6
10:40 1027 30.33 856 25.28 21.2 70.1 32 4 39.1
10:45 1027 30.33 856 25.28 21.1 69.9 33 4.2 39.6
10:50 1027 30.33 856 25.28 21.2 70.1 31 3.5 38.3
10:55 1027 30.33 856 25.28 21.4 70.6 32 4.2 39.5
11:00 1027 30.33 856 25.28 21 69.8 31 3.2 37.8
11:05 1027 30.33 856 25.28 21.5 70.7 30 3.6 38.5
11:10 1027 30.33 856 25.28 21.8 71.2 31 3.9 39
11:15 1027 30.33 856 25.28 21.3 70.3 31 3.8 38.8
11:20 1027 30.33 856 25.28 21.2 70.2 29 2.8 37.1
11:25 1027 30.33 856 25.28 22.2 72 28 3.1 37.6
11:30 1027 30.33 856 25.28 22.9 73.3 28 3.5 38.4
11:35 1027 30.33 856 25.28 22.1 71.8 28 2.7 36.9
11:40 1027 30.33 856 25.28 22.6 72.6 28 3.2 37.8
11:45 1027 30.33 856 25.28 23.5 74.4 25 2.8 37
11:50 1027 30.33 856 25.28 23.2 73.7 27 3.4 38.1
11:55 1027 30.33 856 25.28 22.9 73.2 27 3 37.3
12:00 1027 30.33 856 25.28 22.3 72.2 25 1.7 35.1
12:05 1027 30.33 856 25.28 23.7 74.7 23 1.5 34.8
12:10 1027 30.33 856 25.28 24 75.2 26 3.4 38.1
12:15 1027 30.33 856 25.28 23.8 74.8 25 2.7 36.9
12:20 1027 30.33 856 25.28 24.6 76.2 23 2.2 35.9
12:25 1027 30.33 856 25.28 23.2 73.8 25 2.1 35.7
12:30 1027 30.33 856 25.28 23.4 74.1 20 -0.6 30.9
12:35 1027 30.33 856 25.28 23.7 74.7 22 0.8 33.4
12:40 1027 30.33 856 25.28 23.3 73.9 22 0.9 33.6
12:45 1026 30.3 856 25.28 23.7 74.6 21 0.4 32.7
12:50 1026 30.3 856 25.28 24.5 76 20 0.1 32.2
12:55 1026 30.3 855 25.25 24.9 76.7 21 1.2 34.2
13:00 1026 30.3 855 25.25 25.1 77.2 21 1.4 34.5
13:05 1026 30.3 855 25.25 25.5 77.9 18 -0 32
13:10 1026 30.3 855 25.25 25.6 78 19 0.6 33.2
13:15 1026 30.3 855 25.25 25.2 77.3 20 0.8 33.4
13:20 1026 30.3 855 25.25 25.2 77.3 20 0.9 33.7
13:25 1026 30.3 855 25.25 24.3 75.7 19 -0.4 31.2
13:30 1026 30.3 855 25.25 25.2 77.3 18 -0.3 31.5
13:35 1026 30.3 855 25.25 25.4 77.7 20 1.2 34.1
13:40 1026 30.3 855 25.25 25.7 78.2 19 0.9 33.7
13:45 1026 30.3 855 25.25 25.9 78.6 17 -0.7 30.7
13:50 1026 30.3 855 25.25 26 78.8 18 -0.1 31.8
13:55 1026 30.3 855 25.25 25.8 78.5 19 0.5 33
14:00 1026 30.3 855 25.25 26.2 79.1 19 1 33.8
14:05 1026 30.3 855 25.25 25.4 77.7 20 0.8 33.4
14:10 1026 30.3 855 25.25 25 77 19 -0.1 31.8
14:15 1026 30.3 855 25.25 25.8 78.4 19 0.6 33
14:20 1026 30.3 855 25.25 25.8 78.5 18 0.1 32.3
14:25 1026 30.3 855 25.25 26.2 79.2 19 1.4 34.6
14:30 1026 30.3 855 25.25 26.2 79.1 18 0 32
14:35 1026 30.3 855 25.25 25.1 77.1 19 0.2 32.4
14:40 1026 30.3 855 25.25 24.6 76.4 19 -0.1 31.9
14:45 1026 30.3 855 25.25 25 76.9 19 -0 31.9
14:50 1026 30.3 855 25.25 25.9 78.6 17 -0.4 31.2
14:55 1026 30.3 855 25.25 25.7 78.2 18 0.2 32.3
15:00 1026 30.3 855 25.25 25.1 77.1 18 -1 30.2
15:05 1025 30.27 855 25.25 26 78.7 15 -2.7 27.2
15:10 1025 30.27 855 25.25 26.5 79.7 14 -2.7 27.2
15:15 1025 30.27 855 25.25 26.5 79.8 14 -3.3 26
15:20 1025 30.27 855 25.25 27 80.5 14 -2.6 27.3
15:25 1025 30.27 855 25.25 26.6 79.9 14 -2.5 27.5
15:30 1025 30.27 855 25.25 26.9 80.4 15 -2 28.4
15:35 1025 30.27 855 25.25 26.8 80.2 14 -3 26.6
15:40 1025 30.27 855 25.25 27 80.6 12 -4.6 23.7
15:45 1025 30.27 854 25.22 27.3 81.1 12 -4 24.8
15:50 1025 30.27 854 25.22 27.3 81.1 13 -3 26.6
15:55 1025 30.27 854 25.22 27.3 81.1 15 -1.5 29.2
16:00 1025 30.27 854 25.22 26.8 80.2 14 -2.2 28
16:05 1025 30.27 854 25.22 26.1 79 15 -2.2 28
16:10 1025 30.27 854 25.22 26.4 79.5 15 -2.3 27.8
16:15 1025 30.27 854 25.22 27.3 81.1 14 -2.3 27.9
16:20 1025 30.27 854 25.22 26.3 79.4 15 -2 28.4
16:25 1025 30.27 854 25.22 25.7 78.2 15 -2.9 26.9
16:30 1025 30.27 854 25.22 26.5 79.6 14 -2.8 27
16:35 1025 30.27 854 25.22 26.8 80.3 14 -2.5 27.4
16:40 1025 30.27 854 25.22 27.2 80.9 13 -3 26.7
16:45 1025 30.27 854 25.22 27.7 81.9 14 -1.9 28.5
16:50 1025 30.27 854 25.22 26.9 80.5 14 -2.3 27.8
16:55 1025 30.27 854 25.22 25.9 78.7 15 -2.3 27.9
17:00 1025 30.27 854 25.22 26.8 80.2 14 -2.3 27.8
17:05 1025 30.27 854 25.22 27.7 81.8 14 -2.2 28
17:10 1025 30.27 854 25.22 26.8 80.2 15 -2.2 28.1
17:15 1025 30.27 854 25.22 26.3 79.3 14 -2.7 27.1
17:20 1025 30.27 854 25.22 26.6 79.9 14 -2.6 27.4
17:25 1025 30.27 854 25.22 26.4 79.6 14 -2.5 27.5
17:30 1024 30.24 854 25.22 25.9 78.6 15 -2 28.4
17:35 1024 30.24 854 25.22 25.9 78.6 13 -4.2 24.5
17:40 1024 30.24 854 25.22 26 78.7 14 -3.7 25.4
17:45 1024 30.24 854 25.22 26.7 80 14 -3 26.6
17:50 1024 30.24 854 25.22 27.2 80.9 14 -2.2 28
17:55 1024 30.24 854 25.22 27.1 80.8 13 -3 26.7
18:00 1024 30.24 854 25.22 26.9 80.4 13 -3.3 26.1
18:05 1024 30.24 854 25.22 27.1 80.7 14 -2.1 28.2
18:10 1024 30.24 854 25.22 26.7 80.1 17 -0.3 31.4
18:15 1024 30.24 854 25.22 26.8 80.2 14 -2.3 27.9
18:20 1024 30.24 853 25.19 26.1 79 17 -0.9 30.4
18:25 1024 30.24 853 25.19 25.1 77.1 17 -1.3 29.7
18:30 1024 30.24 853 25.19 24.8 76.7 17 -1.8 28.7
18:35 1024 30.24 853 25.19 24.5 76.1 17 -1.6 29.1
18:40 1024 30.24 853 25.19 24.4 76 18 -1.1 30.1
18:45 1024 30.24 853 25.19 24.4 76 19 -0.3 31.4
18:50 1024 30.24 853 25.19 24.5 76 20 0 32.1
18:55 1024 30.24 853 25.19 24.2 75.5 20 0.1 32.3
19:00 1024 30.24 853 25.19 24 75.2 20 0.1 32.2
19:05 1024 30.24 853 25.19 24 75.1 20 0.1 32.2
19:10 1024 30.24 853 25.19 23.8 74.9 20 0.1 32.1
19:15 1024 30.24 853 25.19 23.8 74.8 21 0 32.1
19:20 1024 30.24 853 25.19 23.7 74.7 20 -0 32
19:25 1024 30.24 853 25.19 23.7 74.6 21 0.5 32.9
19:30 1024 30.24 853 25.19 23.6 74.4 22 0.7 33.3
19:35 1024 30.24 853 25.19 23.4 74.2 22 0.6 33
19:40 1024 30.24 853 25.19 23.4 74 22 0.9 33.6
19:45 1024 30.24 853 25.19 23.3 73.9 24 2 35.6
19:50 1024 30.24 853 25.19 23.1 73.5 25 1.9 35.4
19:55 1024 30.24 853 25.19 22.8 73 25 2.2 35.9
20:00 1024 30.24 853 25.19 22.5 72.4 25 1.9 35.4
20:05 1024 30.24 853 25.19 22.2 72 27 2.6 36.7
20:10 1024 30.24 853 25.19 21.8 71.2 31 4.1 39.3
20:15 1024 30.24 853 25.19 20.9 69.6 31 3.5 38.3
20:20 1024 30.24 853 25.19 20.4 68.7 31 2.8 37.1
20:25 1024 30.24 853 25.19 20.1 68.1 30 2.2 35.9
20:30 1024 30.24 853 25.19 19.8 67.6 30 2 35.6
20:35 1024 30.24 853 25.19 19.6 67.3 31 2.1 35.8
20:40 1024 30.24 853 25.19 19.4 66.8 32 2.2 35.9
20:45 1024 30.24 853 25.19 19.2 66.6 32 2.2 36
20:50 1024 30.24 853 25.19 19.2 66.5 32 2.3 36.1
20:55 1024 30.24 853 25.19 19.2 66.6 32 2.4 36.3
21:00 1024 30.24 853 25.19 19.1 66.4 33 2.5 36.6
21:05 1024 30.24 853 25.19 18.9 66.1 33 2.6 36.6
21:10 1024 30.24 853 25.19 18.8 65.8 33 2.2 36
21:15 1024 30.24 853 25.19 19.2 66.5 32 2.2 35.9
21:20 1024 30.24 853 25.19 19.4 66.9 33 2.7 36.8
21:25 1024 30.24 853 25.19 19.1 66.4 33 2.6 36.7
21:30 1024 30.24 853 25.19 19 66.1 33 2.5 36.6
21:35 1024 30.24 853 25.19 19 66.1 33 2.4 36.4
21:40 1024 30.24 853 25.19 19 66.2 33 2.6 36.7
21:45 1024 30.24 853 25.19 18.9 66 33 2.6 36.7
21:50 1024 30.24 853 25.19 18.6 65.6 34 2.6 36.8
21:55 1024 30.24 853 25.19 18.5 65.3 34 2.4 36.4
22:00 1024 30.24 853 25.19 18.4 65.1 35 2.6 36.7
22:05 1024 30.24 853 25.19 18.2 64.8 35 2.7 36.9
22:10 1024 30.24 853 25.19 18.1 64.5 35 2.6 36.7
22:15 1024 30.24 853 25.19 18.1 64.5 35 2.5 36.5
22:20 1024 30.24 853 25.19 18.2 64.7 35 2.4 36.3
22:25 1024 30.24 853 25.19 18.2 64.7 35 2.4 36.3
22:30 1024 30.24 853 25.19 18.2 64.7 34 2.3 36.2
22:35 1024 30.24 853 25.19 18.2 64.8 35 2.5 36.4
22:40 1024 30.24 853 25.19 18.1 64.6 35 2.5 36.5
22:45 1024 30.24 853 25.19 18.2 64.7 34 2.3 36.2
22:50 1024 30.24 853 25.19 18.3 64.9 34 2.4 36.3
22:55 1024 30.24 853 25.19 18.2 64.7 35 2.5 36.5
23:00 1024 30.24 853 25.19 18 64.3 34 2.1 35.8
23:05 1023 30.21 853 25.19 18.1 64.6 34 1.9 35.5
23:10 1023 30.21 853 25.19 18.2 64.7 33 2 35.5
23:15 1023 30.21 853 25.19 18.2 64.7 33 1.9 35.3
23:20 1023 30.21 853 25.19 18.2 64.8 34 2.2 36
23:25 1023 30.21 853 25.19 17.8 64 35 2.3 36.2
23:30 1024 30.24 853 25.19 17.7 63.8 35 2.2 35.9
23:35 1024 30.24 853 25.19 17.6 63.7 35 2.2 35.9
23:40 1024 30.24 853 25.19 17.6 63.6 35 2.1 35.8
23:45 1023 30.21 853 25.19 17.5 63.6 35 2 35.6
23:50 1023 30.21 853 25.19 17.6 63.7 34 1.9 35.4
23:55 1023 30.21 853 25.19 17.7 63.8 34 1.9 35.4
24:00 1023 30.21 853 25.19 17.7 63.8 34 1.7 35.1